Time;durP1;ratioP1;P1;durP2;ratioP2;P2;SDS_P1;SDS_P2;PMS_P1;PMS_P2;Temp;Humidity;BMP_temperature;BMP_pressure;BME280_temperature;BME280_humidity;BME280_pressure;Samples;Min_cycle;Max_cycle;Signal;HPM_P1;HPM_P2
2022/08/07 00:01:19;;;;;;;6.95;3.03;;;;;;;16.44;94.36;102207.84;4929528;28;20175;-78
2022/08/07 00:04:06;;;;;;;12.20;3.30;;;;;;;16.43;94.13;102203.47;4927763;29;20058;-78
2022/08/07 00:06:37;;;;;;;6.22;2.97;;;;;;;16.41;93.11;102203.06;4929087;29;20055;-78
2022/08/07 00:09:18;;;;;;;5.38;2.85;;;;;;;16.33;95.40;102195.09;4930167;28;20236;-78
2022/08/07 00:11:48;;;;;;;9.77;3.17;;;;;;;16.33;95.34;102197.88;4930810;28;20682;-76
2022/08/07 00:14:25;;;;;;;8.45;3.58;;;;;;;16.29;93.88;102194.28;4929006;28;20824;-78
2022/08/07 00:17:01;;;;;;;9.07;3.08;;;;;;;16.24;95.24;102195.50;4928936;29;20190;-78
2022/08/07 00:19:30;;;;;;;7.90;2.65;;;;;;;16.18;95.38;102197.09;4929297;28;20054;-78
2022/08/07 00:22:16;;;;;;;6.90;3.33;;;;;;;16.07;95.93;102193.53;4929320;28;20591;-78
2022/08/07 00:25:06;;;;;;;8.35;3.28;;;;;;;16.01;97.79;102189.53;4926902;29;20055;-78
2022/08/07 00:27:42;;;;;;;5.00;2.90;;;;;;;15.97;97.60;102187.94;4928601;29;20054;-77
2022/08/07 00:30:22;;;;;;;9.25;3.45;;;;;;;15.96;97.43;102192.69;4930184;28;20055;-77
2022/08/07 00:32:53;;;;;;;7.53;3.47;;;;;;;15.91;97.70;102179.16;4928367;28;20134;-78
2022/08/07 00:35:20;;;;;;;8.90;3.28;;;;;;;15.92;98.62;102191.09;4929752;28;20069;-78
2022/08/07 00:37:49;;;;;;;7.93;3.55;;;;;;;15.91;98.66;102187.53;4929798;28;20054;-77
2022/08/07 00:40:17;;;;;;;6.78;3.20;;;;;;;15.89;98.84;102192.69;4930212;28;20055;-78
2022/08/07 00:43:03;;;;;;;8.95;3.13;;;;;;;15.87;99.22;102177.56;4928282;28;20047;-78
2022/08/07 00:45:35;;;;;;;7.40;3.42;;;;;;;15.82;98.57;102187.13;4923938;28;20063;-78
2022/08/07 00:48:02;;;;;;;6.25;3.50;;;;;;;15.80;98.38;102183.13;4927030;28;20142;-78
2022/08/07 00:50:37;;;;;;;6.13;3.03;;;;;;;15.76;99.90;102185.91;4931220;28;20062;-78
2022/08/07 00:53:17;;;;;;;6.80;3.40;;;;;;;15.72;99.40;102176.75;4929063;29;20519;-78
2022/08/07 00:55:46;;;;;;;8.43;3.22;;;;;;;15.70;99.65;102173.56;4923188;29;20849;-78
2022/08/07 00:58:31;;;;;;;7.80;3.33;;;;;;;15.68;100.00;102180.72;4928207;29;20791;-77
2022/08/07 01:00:58;;;;;;;7.68;3.40;;;;;;;15.63;100.00;102181.13;4929873;28;20050;-77
2022/08/07 01:03:25;;;;;;;8.93;3.30;;;;;;;15.57;100.00;102175.91;4929411;28;20054;-77
2022/08/07 01:06:12;;;;;;;6.85;3.10;;;;;;;15.52;100.00;102169.16;4931272;28;20058;-77
2022/08/07 01:08:41;;;;;;;7.82;3.38;;;;;;;15.46;100.00;102168.75;4931409;29;20780;-77
2022/08/07 01:11:20;;;;;;;7.10;2.95;;;;;;;15.45;100.00;102167.94;4931035;28;20606;-77
2022/08/07 01:14:07;;;;;;;9.40;3.25;;;;;;;15.44;100.00;102166.38;4928458;29;20516;-78
2022/08/07 01:16:35;;;;;;;9.93;3.50;;;;;;;15.37;100.00;102169.13;4925358;28;20057;-76
2022/08/07 01:19:04;;;;;;;5.90;3.15;;;;;;;15.30;100.00;102169.06;4923586;29;20066;-76
2022/08/07 01:21:46;;;;;;;10.77;3.67;;;;;;;15.26;100.00;102168.25;4924788;28;20061;-77
2022/08/07 01:24:13;;;;;;;7.93;3.28;;;;;;;15.22;100.00;102170.25;4929375;29;20051;-76
2022/08/07 01:26:44;;;;;;;7.78;3.17;;;;;;;15.20;100.00;102166.25;4931410;28;20051;-76
2022/08/07 01:29:26;;;;;;;9.13;3.40;;;;;;;15.19;100.00;102159.09;4926177;28;20048;-75
2022/08/07 01:31:59;;;;;;;12.23;4.10;;;;;;;15.19;100.00;102167.47;4924660;28;20054;-75
2022/08/07 01:34:32;;;;;;;10.38;5.03;;;;;;;15.15;100.00;102159.06;4924745;28;20059;-73
2022/08/07 01:36:59;;;;;;;10.18;4.43;;;;;;;15.14;100.00;102154.69;4935454;28;20058;-74
2022/08/07 01:39:26;;;;;;;7.40;3.28;;;;;;;15.15;100.00;102158.25;4933043;28;21094;-75
2022/08/07 01:42:15;;;;;;;7.05;3.42;;;;;;;15.15;100.00;102147.91;4930539;28;20082;-76
2022/08/07 01:45:03;;;;;;;5.35;3.05;;;;;;;15.09;100.00;102138.34;4930463;28;20759;-73
2022/08/07 01:47:35;;;;;;;8.63;3.22;;;;;;;15.14;100.00;102151.91;4928491;28;20059;-74
2022/08/07 01:50:22;;;;;;;9.10;3.85;;;;;;;15.09;100.00;102143.91;4920423;29;20709;-71
2022/08/07 01:52:56;;;;;;;8.35;3.60;;;;;;;15.06;100.00;102139.13;4928047;29;20311;-71
2022/08/07 01:55:31;;;;;;;9.30;3.50;;;;;;;14.97;100.00;102144.28;4928645;28;20063;-72
2022/08/07 01:58:01;;;;;;;8.55;3.42;;;;;;;14.96;100.00;102150.25;4927897;28;20169;-73
2022/08/07 02:00:56;;;;;;;10.23;3.67;;;;;;;14.92;100.00;102143.88;4919280;29;20799;-72
2022/08/07 02:03:48;;;;;;;10.63;3.67;;;;;;;14.90;100.00;102140.66;4927463;28;20732;-75
2022/08/07 02:06:20;;;;;;;10.48;3.90;;;;;;;14.82;100.00;102139.84;4926916;29;20047;-73
2022/08/07 02:09:03;;;;;;;9.57;3.88;;;;;;;14.80;100.00;102149.78;4943640;28;20075;-73
2022/08/07 02:11:36;;;;;;;5.75;3.17;;;;;;;14.75;100.00;102150.94;4942978;29;20074;-74
2022/08/07 02:14:27;;;;;;;8.50;3.55;;;;;;;14.78;100.00;102146.59;4943878;28;20062;-74
2022/08/07 02:17:08;;;;;;;7.85;3.58;;;;;;;14.72;100.00;102137.81;4941238;28;20062;-74
2022/08/07 02:19:40;;;;;;;8.23;3.63;;;;;;;14.71;100.00;102143.75;4952690;28;20114;-73
2022/08/07 02:22:28;;;;;;;7.07;3.22;;;;;;;14.65;100.00;102139.78;4949121;28;20062;-71
2022/08/07 02:24:56;;;;;;;8.25;3.58;;;;;;;14.63;100.00;102142.94;4939233;29;20106;-74
2022/08/07 02:27:26;;;;;;;9.18;3.72;;;;;;;14.61;100.00;102138.94;4947248;29;20044;-74
2022/08/07 02:30:02;;;;;;;11.07;3.50;;;;;;;14.57;100.00;102127.78;4941027;28;20055;-73
2022/08/07 02:32:36;;;;;;;6.25;3.42;;;;;;;14.60;100.00;102121.44;4944283;29;20477;-73
2022/08/07 02:35:24;;;;;;;7.97;3.53;;;;;;;14.58;100.00;102131.38;4935948;28;20060;-73
2022/08/07 02:38:13;;;;;;;7.70;3.85;;;;;;;14.51;100.00;102134.91;4943852;29;20047;-71
2022/08/07 02:40:43;;;;;;;8.48;3.90;;;;;;;14.46;100.00;102128.94;4939881;29;20043;-72
2022/08/07 02:43:14;;;;;;;8.75;3.80;;;;;;;14.45;100.00;102128.13;4944790;28;20047;-74
2022/08/07 02:45:41;;;;;;;7.80;3.55;;;;;;;14.43;100.00;102122.16;4946309;29;20517;-71
2022/08/07 02:48:31;;;;;;;10.15;4.15;;;;;;;14.40;100.00;102125.72;4936143;28;20450;-73
2022/08/07 02:51:06;;;;;;;9.77;3.80;;;;;;;14.40;100.00;102128.50;4949455;28;20138;-73
2022/08/07 02:53:54;;;;;;;10.48;4.00;;;;;;;14.37;100.00;102128.47;4948468;28;20054;-73
2022/08/07 02:56:25;;;;;;;6.50;3.55;;;;;;;14.33;100.00;102128.47;4952533;28;20043;-73
2022/08/07 02:58:54;;;;;;;11.50;3.90;;;;;;;14.34;100.00;102127.25;4946779;29;20063;-73
2022/08/07 03:01:25;;;;;;;7.03;3.88;;;;;;;14.34;100.00;102124.47;4937106;29;20052;-73
2022/08/07 03:04:03;;;;;;;9.85;3.58;;;;;;;14.31;100.00;102119.69;4950750;28;20048;-73
2022/08/07 03:06:35;;;;;;;7.20;3.47;;;;;;;14.33;100.00;102127.66;4946504;28;20055;-73
2022/08/07 03:09:06;;;;;;;7.53;3.50;;;;;;;14.30;100.00;102122.84;4952326;28;20069;-73
2022/08/07 03:11:37;;;;;;;9.25;4.32;;;;;;;14.25;100.00;102126.84;4948765;29;20142;-73
2022/08/07 03:14:23;;;;;;;6.05;3.47;;;;;;;14.23;100.00;102129.19;4946932;29;20051;-72
2022/08/07 03:16:51;;;;;;;6.85;3.70;;;;;;;14.20;100.00;102118.00;4945972;28;20051;-72
2022/08/07 03:19:18;;;;;;;8.20;4.13;;;;;;;14.18;100.00;102126.72;4947212;28;20137;-73
2022/08/07 03:21:45;;;;;;;8.93;4.03;;;;;;;14.19;100.00;102133.09;4953470;28;20495;-75
2022/08/07 03:24:16;;;;;;;11.30;4.28;;;;;;;14.18;100.00;102129.50;4947622;29;20887;-73
2022/08/07 03:26:53;;;;;;;8.95;4.28;;;;;;;14.17;100.00;102129.94;4952956;28;20547;-73
2022/08/07 03:29:26;;;;;;;7.43;3.97;;;;;;;14.11;100.00;102135.03;4952104;28;20082;-73
2022/08/07 03:31:54;;;;;;;10.52;4.40;;;;;;;14.05;100.00;102125.47;4948580;29;20746;-72
2022/08/07 03:34:23;;;;;;;5.53;3.67;;;;;;;14.07;100.00;102127.88;4952946;29;20129;-73
2022/08/07 03:36:54;;;;;;;9.65;4.13;;;;;;;14.07;100.00;102130.66;4960293;28;20057;-73
2022/08/07 03:39:26;;;;;;;10.40;4.50;;;;;;;14.04;100.00;102123.84;4952449;28;20105;-73
2022/08/07 03:42:15;;;;;;;6.90;3.97;;;;;;;14.03;100.00;102124.25;4947420;28;20179;-73
2022/08/07 03:44:42;;;;;;;11.38;4.20;;;;;;;13.95;100.00;102128.16;4954014;28;20131;-72
2022/08/07 03:47:19;;;;;;;9.90;4.22;;;;;;;13.93;100.00;102124.97;4948986;29;20047;-73
2022/08/07 03:49:48;;;;;;;8.82;4.00;;;;;;;13.93;100.00;102120.19;4948206;29;20055;-72
2022/08/07 03:52:21;;;;;;;12.30;4.07;;;;;;;13.94;100.00;102129.38;4959285;28;20057;-73
2022/08/07 03:55:02;;;;;;;8.57;4.15;;;;;;;13.91;100.00;102122.56;4951497;29;20051;-74
2022/08/07 03:57:34;;;;;;;7.95;4.18;;;;;;;13.90;100.00;102126.53;4953447;28;20054;-74
2022/08/07 04:00:21;;;;;;;8.27;4.38;;;;;;;13.84;100.00;102124.50;4944417;28;20424;-73
2022/08/07 04:03:00;;;;;;;10.52;3.90;;;;;;;13.85;100.00;102131.66;4950528;28;20074;-74
2022/08/07 04:05:34;;;;;;;8.88;3.90;;;;;;;13.83;100.00;102132.06;4947705;28;20523;-73
2022/08/07 04:08:11;;;;;;;8.32;3.90;;;;;;;13.79;100.00;102131.22;4946333;28;20051;-73
2022/08/07 04:10:39;;;;;;;8.85;4.15;;;;;;;13.81;100.00;102122.50;4949365;28;20055;-73
2022/08/07 04:13:12;;;;;;;6.85;3.67;;;;;;;13.78;100.00;102129.63;4947120;28;20587;-73
2022/08/07 04:15:42;;;;;;;9.48;4.30;;;;;;;13.77;100.00;102130.81;4952265;28;20622;-73
2022/08/07 04:18:13;;;;;;;7.75;3.90;;;;;;;13.74;100.00;102123.22;4960641;28;20043;-73
2022/08/07 04:21:00;;;;;;;9.57;4.35;;;;;;;13.71;100.00;102121.25;4949723;28;20051;-73
2022/08/07 04:23:28;;;;;;;10.55;4.22;;;;;;;13.69;100.00;102131.94;4952849;28;20054;-74
2022/08/07 04:26:15;;;;;;;8.80;4.32;;;;;;;13.70;100.00;102122.41;4954395;28;20174;-72
2022/08/07 04:28:47;;;;;;;11.05;4.57;;;;;;;13.72;100.00;102125.59;4942681;28;20051;-70
2022/08/07 04:31:16;;;;;;;8.10;4.25;;;;;;;13.77;100.00;102127.25;4948577;28;20057;-73
2022/08/07 04:33:46;;;;;;;10.30;4.28;;;;;;;13.78;100.00;102128.81;4946953;29;20046;-74
2022/08/07 04:36:20;;;;;;;10.63;4.30;;;;;;;13.80;100.00;102132.03;4947794;28;20051;-74
2022/08/07 04:38:52;;;;;;;9.88;4.60;;;;;;;13.78;100.00;102120.47;4950651;28;20043;-73
2022/08/07 04:41:19;;;;;;;10.40;4.50;;;;;;;13.79;100.00;102128.44;4955741;28;20094;-73
2022/08/07 04:44:02;;;;;;;8.68;4.68;;;;;;;13.79;100.00;102135.97;4950597;28;20043;-73
2022/08/07 04:46:54;;;;;;;11.18;4.85;;;;;;;13.79;100.00;102131.22;4951626;28;20060;-73
2022/08/07 04:49:55;;;;;;;12.70;4.65;;;;;;;13.82;100.00;102136.03;4951612;28;20063;-73
2022/08/07 04:52:45;;;;;;;10.07;4.75;;;;;;;13.85;100.00;102137.22;4950266;28;20051;-74
2022/08/07 04:55:40;;;;;;;8.43;5.03;;;;;;;13.89;100.00;102136.06;4945376;28;20568;-73
2022/08/07 04:58:36;;;;;;;11.68;4.53;;;;;;;13.91;100.00;102139.25;4951913;28;20729;-74
2022/08/07 05:01:55;;;;;;;8.52;4.30;;;;;;;13.99;100.00;102145.69;4954780;28;20951;-74
2022/08/07 05:04:41;;;;;;;8.23;4.28;;;;;;;14.02;100.00;102145.72;4948974;29;20055;-73
2022/08/07 05:07:23;;;;;;;10.75;4.93;;;;;;;14.06;100.00;102154.91;4959186;28;20050;-74
2022/08/07 05:10:11;;;;;;;7.28;4.32;;;;;;;14.13;100.00;102146.59;4948870;28;20424;-73
2022/08/07 05:12:43;;;;;;;8.32;4.80;;;;;;;14.15;100.00;102141.44;4945134;28;20526;-73
2022/08/07 05:15:25;;;;;;;7.97;4.93;;;;;;;14.21;100.00;102137.09;4950923;28;20058;-74
2022/08/07 05:18:01;;;;;;;11.48;5.43;;;;;;;14.28;100.00;102142.72;4947706;28;20181;-73
2022/08/07 05:20:46;;;;;;;13.90;5.53;;;;;;;14.35;100.00;102139.22;4951654;28;20082;-74
2022/08/07 05:23:19;;;;;;;16.85;6.03;;;;;;;14.43;100.00;102144.44;4950587;28;20131;-73
2022/08/07 05:25:56;;;;;;;12.40;5.97;;;;;;;14.52;100.00;102146.88;4948690;28;20055;-74
2022/08/07 05:28:41;;;;;;;9.90;5.43;;;;;;;14.61;100.00;102147.28;4951832;28;20043;-73
2022/08/07 05:31:19;;;;;;;12.10;5.03;;;;;;;14.71;100.00;102149.34;4946728;28;20430;-73
2022/08/07 05:33:48;;;;;;;13.15;5.30;;;;;;;14.80;100.00;102155.34;4950477;28;20039;-73
2022/08/07 05:36:33;;;;;;;10.57;5.15;;;;;;;14.87;100.00;102155.38;4954487;28;20051;-73
2022/08/07 05:39:02;;;;;;;10.63;5.45;;;;;;;14.99;100.00;102153.03;4956421;28;20047;-73
2022/08/07 05:41:50;;;;;;;14.05;5.70;;;;;;;15.10;100.00;102151.09;4960603;28;20696;-73
2022/08/07 05:44:32;;;;;;;13.23;6.32;;;;;;;15.19;100.00;102162.66;4952983;28;20047;-73
2022/08/07 05:47:00;;;;;;;13.70;6.38;;;;;;;15.30;100.00;102165.50;4947335;28;20082;-72
2022/08/07 05:49:48;;;;;;;13.45;6.53;;;;;;;15.41;100.00;102155.19;4948978;28;20065;-73
2022/08/07 05:52:16;;;;;;;17.65;7.40;;;;;;;15.52;100.00;102166.38;4944958;28;20134;-74
2022/08/07 05:54:46;;;;;;;12.40;6.50;;;;;;;15.59;100.00;102152.44;4949492;28;20046;-74
2022/08/07 05:57:25;;;;;;;13.85;6.60;;;;;;;15.70;100.00;102164.38;4948949;29;20059;-72
2022/08/07 06:00:00;;;;;;;12.32;6.05;;;;;;;15.76;100.00;102160.78;4948060;29;20047;-74
2022/08/07 06:02:30;;;;;;;13.95;6.60;;;;;;;15.87;100.00;102169.19;4948452;28;20146;-73
2022/08/07 06:05:02;;;;;;;16.83;6.45;;;;;;;15.95;100.00;102167.97;4948412;28;20051;-74
2022/08/07 06:07:31;;;;;;;13.55;6.15;;;;;;;16.01;100.00;102171.97;4945934;29;20057;-73
2022/08/07 06:10:18;;;;;;;14.55;6.80;;;;;;;16.14;100.00;102173.97;4948353;29;20051;-74
2022/08/07 06:12:46;;;;;;;12.90;6.38;;;;;;;16.23;100.00;102173.56;4947965;29;20075;-73
2022/08/07 06:15:14;;;;;;;13.57;6.43;;;;;;;16.31;100.00;102161.97;4962020;28;20063;-73
2022/08/07 06:17:42;;;;;;;17.30;7.30;;;;;;;16.43;100.00;102171.97;4954355;28;20054;-74
2022/08/07 06:20:23;;;;;;;13.55;6.60;;;;;;;16.52;100.00;102166.75;4942227;29;20261;-73
2022/08/07 06:23:11;;;;;;;13.15;6.50;;;;;;;16.64;100.00;102166.31;4949761;28;20051;-73
2022/08/07 06:25:58;;;;;;;11.63;6.20;;;;;;;16.77;100.00;102170.28;4943736;28;20055;-73
2022/08/07 06:28:25;;;;;;;12.77;5.68;;;;;;;16.87;100.00;102169.44;4948500;28;20057;-73
2022/08/07 06:30:55;;;;;;;13.05;5.90;;;;;;;16.96;100.00;102166.97;4949710;28;20055;-75
2022/08/07 06:33:23;;;;;;;12.30;5.88;;;;;;;17.05;100.00;102170.16;4947792;28;20165;-73
2022/08/07 06:35:50;;;;;;;15.05;6.07;;;;;;;17.14;100.00;102174.09;4943001;28;20055;-74
2022/08/07 06:38:45;;;;;;;13.05;5.93;;;;;;;17.23;100.00;102170.84;4945307;28;20397;-74
2022/08/07 06:41:40;;;;;;;12.38;5.10;;;;;;;17.35;98.67;102165.56;4950369;28;20105;-71
2022/08/07 06:44:28;;;;;;;8.43;4.45;;;;;;;17.47;97.05;102169.94;4949907;28;20055;-71
2022/08/07 06:47:00;;;;;;;10.35;4.25;;;;;;;17.59;96.61;102166.66;4953565;28;20505;-71
2022/08/07 06:49:41;;;;;;;8.43;4.60;;;;;;;17.70;95.33;102164.56;4952570;28;20055;-72
2022/08/07 06:52:19;;;;;;;6.97;3.17;;;;;;;17.78;92.51;102160.50;4949779;28;20059;-72
2022/08/07 06:55:02;;;;;;;6.65;3.42;;;;;;;17.92;91.46;102157.59;4951245;28;20039;-71
2022/08/07 06:57:50;;;;;;;6.03;3.10;;;;;;;18.03;89.51;102156.28;4950224;28;20058;-71
2022/08/07 07:00:23;;;;;;;7.45;3.20;;;;;;;18.11;88.53;102148.63;4948946;28;20110;-71
2022/08/07 07:02:50;;;;;;;4.63;2.72;;;;;;;18.23;87.70;102153.72;4944871;29;20480;-71
2022/08/07 07:05:23;;;;;;;6.20;2.72;;;;;;;18.31;86.49;102152.44;4955992;28;20416;-70
2022/08/07 07:08:11;;;;;;;7.85;3.17;;;;;;;18.45;85.85;102155.13;4957625;28;20121;-70
2022/08/07 07:10:52;;;;;;;5.63;2.70;;;;;;;18.54;83.88;102152.63;4959197;28;20491;-70
2022/08/07 07:13:31;;;;;;;7.32;2.80;;;;;;;18.65;82.93;102150.47;4950423;28;20682;-70
2022/08/07 07:16:20;;;;;;;3.42;2.28;;;;;;;18.80;82.49;102151.91;4950503;28;20043;-70
2022/08/07 07:18:51;;;;;;;6.15;2.40;;;;;;;18.94;81.53;102159.34;4952310;28;20054;-70
2022/08/07 07:21:31;;;;;;;5.53;2.35;;;;;;;19.07;80.42;102154.78;4950891;28;20113;-70
2022/08/07 07:24:18;;;;;;;5.45;2.72;;;;;;;19.22;79.22;102156.16;4943647;28;20039;-69
2022/08/07 07:26:47;;;;;;;4.45;2.22;;;;;;;19.31;77.69;102148.06;4944239;29;20055;-71
2022/08/07 07:29:21;;;;;;;5.18;2.28;;;;;;;19.44;77.45;102147.03;4948859;28;20079;-70
2022/08/07 07:32:11;;;;;;;7.03;2.22;;;;;;;19.56;75.16;102149.28;4949266;28;20411;-70
2022/08/07 07:34:44;;;;;;;6.25;2.00;;;;;;;19.70;74.60;102151.06;4946981;29;20039;-70
2022/08/07 07:37:12;;;;;;;4.72;2.38;;;;;;;19.84;74.00;102145.19;4954555;28;20137;-70
2022/08/07 07:40:02;;;;;;;8.32;2.13;;;;;;;20.00;71.40;102136.91;4948564;28;20772;-70
2022/08/07 07:42:41;;;;;;;4.03;1.77;;;;;;;20.10;71.39;102135.91;4948867;28;20827;-71
2022/08/07 07:45:15;;;;;;;2.72;1.85;;;;;;;20.20;70.65;102137.78;4954811;28;20043;-72
2022/08/07 07:47:43;;;;;;;4.65;1.98;;;;;;;20.27;71.44;102141.25;4952821;28;20415;-70
2022/08/07 07:50:21;;;;;;;8.48;2.03;;;;;;;20.32;69.33;102146.38;4949516;28;20810;-71
2022/08/07 07:53:06;;;;;;;3.10;1.63;;;;;;;20.39;68.17;102137.81;4949403;28;20055;-70
2022/08/07 07:55:53;;;;;;;6.70;2.03;;;;;;;20.52;68.82;102131.56;4934829;29;20378;-68
2022/08/07 07:58:34;;;;;;;3.17;2.17;;;;;;;20.62;68.10;102133.38;4952553;28;20057;-68
2022/08/07 08:01:08;;;;;;;5.35;2.10;;;;;;;20.72;68.04;102137.97;4950422;28;20102;-70
2022/08/07 08:03:57;;;;;;;4.35;2.10;;;;;;;20.74;66.30;102129.88;4946014;28;20503;-70
2022/08/07 08:06:34;;;;;;;4.80;1.77;;;;;;;20.84;66.72;102124.06;4950169;28;20125;-71
2022/08/07 08:09:04;;;;;;;5.38;1.60;;;;;;;20.95;65.72;102127.44;4945870;28;20053;-69
2022/08/07 08:11:34;;;;;;;4.18;1.60;;;;;;;21.08;65.11;102127.56;4948230;28;20412;-70
2022/08/07 08:14:21;;;;;;;1.85;1.50;;;;;;;21.20;63.96;102126.91;4940378;28;20066;-72
2022/08/07 08:16:53;;;;;;;2.50;1.50;;;;;;;21.25;62.68;102129.19;4949536;28;20047;-71
2022/08/07 08:19:26;;;;;;;1.55;1.17;;;;;;;21.40;63.04;102122.03;4949396;28;20051;-71
2022/08/07 08:28:11;;;;;;;6.43;1.52;;;;;;;21.70;58.25;102122.47;4948660;28;19933;-70
2022/08/07 08:30:44;;;;;;;3.20;1.40;;;;;;;21.73;57.10;102110.34;4944901;28;20523;-70
2022/08/07 08:33:19;;;;;;;4.53;1.42;;;;;;;21.92;58.50;102120.75;4947275;28;20062;-70
2022/08/07 08:35:50;;;;;;;4.47;1.60;;;;;;;22.01;58.50;102112.44;4948813;28;20066;-70
2022/08/07 08:38:23;;;;;;;7.53;1.90;;;;;;;22.05;55.50;102109.53;4944493;28;20063;-72
2022/08/07 08:41:26;;;;;;;3.03;1.05;;;;;;;22.24;55.54;102115.03;4942354;28;20065;-72
2022/08/07 08:44:29;;;;;;;2.63;1.20;;;;;;;22.41;52.71;102107.34;4947878;28;20061;-72
2022/08/07 08:47:04;;;;;;;3.15;1.38;;;;;;;22.50;51.85;102099.03;4948844;28;20051;-71
2022/08/07 08:49:51;;;;;;;5.03;1.77;;;;;;;22.53;50.17;102100.97;4960337;28;20546;-70
2022/08/07 08:52:39;;;;;;;1.52;0.77;;;;;;;22.69;50.40;102109.38;4944922;28;20519;-70
2022/08/07 08:55:45;;;;;;;2.72;1.00;;;;;;;22.90;48.56;102099.47;4945577;28;20127;-70
2022/08/07 08:58:47;;;;;;;4.28;1.45;;;;;;;23.08;48.12;102102.56;4948427;28;20048;-69
2022/08/07 09:01:27;;;;;;;5.25;1.02;;;;;;;23.00;43.88;102099.16;4947135;28;20055;-67
2022/08/07 09:04:38;;;;;;;2.85;1.10;;;;;;;23.06;44.44;102102.22;4945528;28;20627;-68
2022/08/07 09:07:07;;;;;;;2.38;1.20;;;;;;;23.26;47.77;102103.63;4948008;28;20086;-69
2022/08/07 09:09:44;;;;;;;2.47;0.80;;;;;;;23.32;45.00;102104.63;4951395;28;20055;-68
2022/08/07 09:12:47;;;;;;;0.70;0.60;;;;;;;23.41;43.24;102104.75;4946479;28;20113;-68
2022/08/07 09:15:34;;;;;;;1.85;0.77;;;;;;;23.52;43.87;102110.84;4948043;28;20117;-69
2022/08/07 09:18:55;;;;;;;1.08;0.88;;;;;;;23.65;43.52;102096.72;4946073;28;20054;-68
2022/08/07 09:21:30;;;;;;;3.17;1.00;;;;;;;23.76;42.96;102100.75;4942641;28;20055;-69
2022/08/07 09:24:29;;;;;;;1.67;0.80;;;;;;;23.82;42.91;102101.75;4948464;28;20051;-67
2022/08/07 09:27:28;;;;;;;4.43;0.95;;;;;;;23.95;42.51;102105.38;4945150;28;20050;-68
2022/08/07 09:30:02;;;;;;;1.55;0.85;;;;;;;24.01;41.31;102097.91;4943183;28;20059;-69
2022/08/07 09:32:40;;;;;;;1.67;0.80;;;;;;;24.14;41.64;102098.66;4941505;28;20420;-68
2022/08/07 09:35:36;;;;;;;1.52;0.70;;;;;;;24.23;39.54;102093.06;4941723;28;20412;-67
2022/08/07 09:38:25;;;;;;;1.48;0.77;;;;;;;24.36;40.63;102090.97;4948192;28;20055;-67
2022/08/07 09:41:05;;;;;;;1.50;0.82;;;;;;;24.41;40.27;102093.22;4942361;28;20051;-73
2022/08/07 09:43:54;;;;;;;3.00;0.88;;;;;;;24.58;39.33;102090.97;4943862;28;20051;-73
2022/08/07 09:46:47;;;;;;;1.25;0.80;;;;;;;24.73;38.06;102090.00;4940012;28;20133;-72
2022/08/07 09:50:04;;;;;;;3.80;0.80;;;;;;;24.85;37.38;102094.81;4942717;28;20512;-74
2022/08/07 09:52:59;;;;;;;3.70;0.98;;;;;;;24.71;35.43;102086.84;4940995;28;20667;-75
2022/08/07 09:55:47;;;;;;;0.68;0.50;;;;;;;24.80;36.88;102086.91;4940964;28;20132;-74
2022/08/07 09:58:47;;;;;;;1.00;0.65;;;;;;;24.90;37.31;102080.03;4942627;28;20423;-78
2022/08/07 10:01:39;;;;;;;2.75;0.80;;;;;;;24.97;36.32;102076.13;4941967;28;20169;-74
2022/08/07 10:04:43;;;;;;;1.55;0.80;;;;;;;25.17;35.55;102071.69;4943022;28;20813;-74
2022/08/07 10:07:48;;;;;;;5.32;0.93;;;;;;;25.10;34.50;102066.31;4942725;28;20183;-74
2022/08/07 10:10:36;;;;;;;4.28;0.80;;;;;;;25.20;35.80;102063.50;4940295;28;20079;-70
2022/08/07 10:13:41;;;;;;;2.22;0.60;;;;;;;25.05;34.49;102055.56;4946175;28;20062;-71
2022/08/07 10:16:45;;;;;;;4.43;0.90;;;;;;;25.37;35.27;102047.88;4946934;28;20063;-68
2022/08/07 10:19:13;;;;;;;4.30;1.02;;;;;;;25.46;34.64;102047.88;4949591;28;20102;-70
2022/08/07 10:21:48;;;;;;;4.15;0.80;;;;;;;25.60;34.92;102052.94;4950442;28;20059;-69
2022/08/07 10:24:48;;;;;;;1.10;0.77;;;;;;;25.77;34.12;102040.84;4942261;28;20058;-70
2022/08/07 10:27:15;;;;;;;1.25;0.70;;;;;;;25.78;34.48;102048.09;4914977;28;20055;-70
2022/08/07 10:30:03;;;;;;;2.33;0.80;;;;;;;25.94;34.43;102050.63;4917438;28;20146;-70
2022/08/07 10:33:13;;;;;;;2.80;0.70;;;;;;;26.11;33.58;102049.09;4914612;28;20138;-71
2022/08/07 10:36:38;;;;;;;2.28;0.73;;;;;;;25.88;32.73;102034.72;4917319;28;20059;-68
2022/08/07 10:39:16;;;;;;;3.03;0.73;;;;;;;26.10;32.46;102038.22;4897499;29;20420;-72
2022/08/07 10:41:54;;;;;;;3.03;0.75;;;;;;;26.25;33.10;102042.00;4896862;29;20575;-72
2022/08/07 10:44:55;;;;;;;0.68;0.47;;;;;;;26.33;32.96;102034.75;4911028;28;20043;-73
2022/08/07 10:47:57;;;;;;;1.70;0.73;;;;;;;26.56;32.63;102036.91;4914298;28;20841;-74
2022/08/07 10:50:49;;;;;;;3.13;0.70;;;;;;;26.79;33.13;102030.53;4908874;28;21022;-72
2022/08/07 10:53:25;;;;;;;1.58;0.68;;;;;;;26.83;32.27;102023.44;4919419;28;20078;-72
2022/08/07 10:56:12;;;;;;;3.55;0.73;;;;;;;26.89;32.02;102026.41;4917051;28;20047;-71
2022/08/07 10:59:11;;;;;;;1.60;0.67;;;;;;;27.03;31.66;102018.00;4917355;28;20051;-72
2022/08/07 11:02:00;;;;;;;1.80;0.70;;;;;;;27.12;31.14;102020.00;4916256;28;20057;-71
2022/08/07 11:04:56;;;;;;;5.47;0.90;;;;;;;26.99;32.10;102006.03;4918230;28;20055;-70
2022/08/07 11:07:45;;;;;;;2.10;0.80;;;;;;;27.10;31.50;102011.19;4917667;28;20051;-72
2022/08/07 11:10:33;;;;;;;2.35;0.70;;;;;;;27.32;32.37;102004.00;4916078;28;20075;-73
2022/08/07 11:13:10;;;;;;;2.42;0.90;;;;;;;27.40;31.82;102008.03;4913496;28;20051;-71
2022/08/07 11:16:05;;;;;;;2.40;0.70;;;;;;;27.53;31.59;102007.78;4918805;28;20055;-71
2022/08/07 11:18:38;;;;;;;3.05;1.35;;;;;;;27.64;31.67;101996.69;4918550;28;20047;-71
2022/08/07 11:21:25;;;;;;;3.67;1.00;;;;;;;27.69;30.82;102000.88;4919297;28;20055;-72
2022/08/07 11:24:07;;;;;;;3.22;0.88;;;;;;;27.83;31.27;101983.06;4917374;28;20174;-73
2022/08/07 11:26:48;;;;;;;1.17;0.77;;;;;;;27.48;30.77;101987.78;4922281;28;20058;-71
2022/08/07 11:29:25;;;;;;;3.67;0.90;;;;;;;27.54;31.21;101978.13;4924875;28;20799;-72
2022/08/07 11:32:29;;;;;;;3.92;1.13;;;;;;;27.76;31.05;101978.56;4921894;28;20065;-71
2022/08/07 11:35:01;;;;;;;3.53;0.90;;;;;;;27.99;31.22;101977.75;4932538;28;20055;-69
2022/08/07 11:38:00;;;;;;;4.78;0.93;;;;;;;27.77;30.22;101968.75;4934121;28;20051;-70
2022/08/07 11:40:42;;;;;;;1.10;0.75;;;;;;;27.88;30.96;101971.88;4934766;28;20909;-71
2022/08/07 11:43:18;;;;;;;1.23;0.88;;;;;;;28.03;30.39;101969.81;4925419;28;20174;-67
2022/08/07 11:46:26;;;;;;;2.47;0.70;;;;;;;28.35;30.07;101968.84;4924212;28;20568;-75
2022/08/07 11:49:01;;;;;;;6.18;0.70;;;;;;;28.59;30.03;101966.72;4920140;28;20583;-71
2022/08/07 11:52:15;;;;;;;3.55;1.38;;;;;;;28.58;28.84;101965.13;4919466;28;20507;-71
2022/08/07 11:55:07;;;;;;;3.25;0.85;;;;;;;28.68;29.05;101966.59;4922668;28;20054;-71
2022/08/07 11:58:00;;;;;;;1.75;0.90;;;;;;;28.70;29.06;101974.66;4923396;28;20051;-71
2022/08/07 12:00:39;;;;;;;1.23;0.60;;;;;;;28.71;29.32;101967.66;4923242;28;20047;-73
2022/08/07 12:03:27;;;;;;;0.95;0.50;;;;;;;28.37;28.59;101959.81;4922011;28;20082;-72
2022/08/07 12:06:42;;;;;;;1.45;0.60;;;;;;;28.54;29.44;101952.38;4921468;28;20062;-74
2022/08/07 12:09:44;;;;;;;2.40;0.60;;;;;;;28.66;29.63;101957.78;4922157;28;20052;-73
2022/08/07 12:12:24;;;;;;;0.95;0.60;;;;;;;28.80;29.52;101959.81;4920044;28;20059;-72
2022/08/07 12:15:09;;;;;;;1.35;0.70;;;;;;;28.92;27.63;101955.84;4923312;28;20756;-71
2022/08/07 12:18:06;;;;;;;0.73;0.60;;;;;;;29.02;29.04;101945.94;4920752;28;20078;-72
2022/08/07 12:21:13;;;;;;;3.28;0.93;;;;;;;29.49;28.58;101951.22;4919553;28;20051;-72
2022/08/07 12:24:07;;;;;;;2.47;0.90;;;;;;;29.61;27.28;101944.44;4932518;28;20051;-72
2022/08/07 12:27:17;;;;;;;1.48;0.70;;;;;;;29.55;26.79;101949.25;4932879;28;20051;-74
2022/08/07 12:30:00;;;;;;;1.02;0.55;;;;;;;29.66;27.08;101940.84;4930315;29;20061;-70